sensor_id;sensor_type;location;lat;lon;timestamp;pressure;altitude;pressure_sealevel;temperature;humidity
39897;BME280;25567;48.276;14.242;2023-02-28T00:00:36;99207.66;;;-0.85;73.94
39897;BME280;25567;48.276;14.242;2023-02-28T00:03:04;99198.47;;;-0.79;73.72
39897;BME280;25567;48.276;14.242;2023-02-28T00:05:31;99194.50;;;-0.83;73.56
39897;BME280;25567;48.276;14.242;2023-02-28T00:07:58;99193.78;;;-0.85;73.74
39897;BME280;25567;48.276;14.242;2023-02-28T00:10:27;99195.59;;;-0.86;73.69
39897;BME280;25567;48.276;14.242;2023-02-28T00:12:56;99195.97;;;-0.90;73.99
39897;BME280;25567;48.276;14.242;2023-02-28T00:15:25;99193.25;;;-0.89;73.45
39897;BME280;25567;48.276;14.242;2023-02-28T00:17:52;99195.97;;;-0.90;73.77
39897;BME280;25567;48.276;14.242;2023-02-28T00:20:19;99194.88;;;-0.88;73.14
39897;BME280;25567;48.276;14.242;2023-02-28T00:22:48;99196.13;;;-0.92;73.40
39897;BME280;25567;48.276;14.242;2023-02-28T00:25:18;99183.53;;;-0.96;73.87
39897;BME280;25567;48.276;14.242;2023-02-28T00:27:45;99193.38;;;-1.00;73.49
39897;BME280;25567;48.276;14.242;2023-02-28T00:30:14;99184.75;;;-1.01;73.75
39897;BME280;25567;48.276;14.242;2023-02-28T00:32:42;99183.09;;;-1.02;73.77
39897;BME280;25567;48.276;14.242;2023-02-28T00:35:10;99189.25;;;-1.03;73.92
39897;BME280;25567;48.276;14.242;2023-02-28T00:37:38;99185.44;;;-0.98;74.32
39897;BME280;25567;48.276;14.242;2023-02-28T00:40:05;99183.38;;;-1.05;74.07
39897;BME280;25567;48.276;14.242;2023-02-28T00:42:34;99183.63;;;-1.08;74.27
39897;BME280;25567;48.276;14.242;2023-02-28T00:45:01;99188.84;;;-1.08;74.33
39897;BME280;25567;48.276;14.242;2023-02-28T00:47:27;99189.41;;;-1.04;74.51
39897;BME280;25567;48.276;14.242;2023-02-28T00:49:54;99182.69;;;-1.07;74.11
39897;BME280;25567;48.276;14.242;2023-02-28T00:52:21;99180.38;;;-1.10;74.20
39897;BME280;25567;48.276;14.242;2023-02-28T00:54:48;99184.72;;;-1.10;74.57
39897;BME280;25567;48.276;14.242;2023-02-28T00:57:14;99169.94;;;-1.10;74.42
39897;BME280;25567;48.276;14.242;2023-02-28T00:59:41;99172.81;;;-1.13;74.67
39897;BME280;25567;48.276;14.242;2023-02-28T01:02:08;99163.47;;;-1.15;74.19
39897;BME280;25567;48.276;14.242;2023-02-28T01:04:34;99163.63;;;-1.17;75.17
39897;BME280;25567;48.276;14.242;2023-02-28T01:07:01;99161.84;;;-1.16;74.47
39897;BME280;25567;48.276;14.242;2023-02-28T01:09:28;99161.84;;;-1.16;74.82
39897;BME280;25567;48.276;14.242;2023-02-28T01:11:54;99160.34;;;-1.19;74.94
39897;BME280;25567;48.276;14.242;2023-02-28T01:14:21;99158.84;;;-1.22;74.99
39897;BME280;25567;48.276;14.242;2023-02-28T01:16:48;99150.22;;;-1.12;74.46
39897;BME280;25567;48.276;14.242;2023-02-28T01:19:15;99155.00;;;-1.18;74.70
39897;BME280;25567;48.276;14.242;2023-02-28T01:21:42;99146.50;;;-1.20;74.78
39897;BME280;25567;48.276;14.242;2023-02-28T01:24:08;99151.69;;;-1.20;75.35
39897;BME280;25567;48.276;14.242;2023-02-28T01:26:35;99151.41;;;-1.26;74.65
39897;BME280;25567;48.276;14.242;2023-02-28T01:29:02;99141.84;;;-1.26;75.14
39897;BME280;25567;48.276;14.242;2023-02-28T01:31:29;99143.59;;;-1.26;74.92
39897;BME280;25567;48.276;14.242;2023-02-28T01:33:56;99152.25;;;-1.26;75.17
39897;BME280;25567;48.276;14.242;2023-02-28T01:36:24;99148.81;;;-1.26;75.17
39897;BME280;25567;48.276;14.242;2023-02-28T01:38:51;99144.31;;;-1.24;75.07
39897;BME280;25567;48.276;14.242;2023-02-28T01:41:23;99138.69;;;-1.29;74.86
39897;BME280;25567;48.276;14.242;2023-02-28T01:46:16;99134.44;;;-1.30;75.29
39897;BME280;25567;48.276;14.242;2023-02-28T01:51:18;99141.56;;;-1.32;75.17
39897;BME280;25567;48.276;14.242;2023-02-28T01:53:50;99136.22;;;-1.31;74.87
39897;BME280;25567;48.276;14.242;2023-02-28T01:56:21;99128.81;;;-1.36;74.81
39897;BME280;25567;48.276;14.242;2023-02-28T01:58:51;99127.84;;;-1.35;74.47
39897;BME280;25567;48.276;14.242;2023-02-28T02:01:20;99125.94;;;-1.32;75.16
39897;BME280;25567;48.276;14.242;2023-02-28T02:03:50;99118.25;;;-1.34;74.73
39897;BME280;25567;48.276;14.242;2023-02-28T02:06:24;99119.47;;;-1.38;75.15
39897;BME280;25567;48.276;14.242;2023-02-28T02:08:51;99115.78;;;-1.36;74.83
39897;BME280;25567;48.276;14.242;2023-02-28T02:11:20;99111.94;;;-1.31;74.53
39897;BME280;25567;48.276;14.242;2023-02-28T02:14:11;99115.25;;;-1.39;74.90
39897;BME280;25567;48.276;14.242;2023-02-28T02:22:20;99111.94;;;-1.41;75.09
39897;BME280;25567;48.276;14.242;2023-02-28T02:25:11;99110.59;;;-1.45;74.76
39897;BME280;25567;48.276;14.242;2023-02-28T02:30:47;99108.13;;;-1.47;74.89
39897;BME280;25567;48.276;14.242;2023-02-28T02:41:19;99098.94;;;-1.51;74.85
39897;BME280;25567;48.276;14.242;2023-02-28T02:43:52;99106.59;;;-1.49;74.49
39897;BME280;25567;48.276;14.242;2023-02-28T02:46:29;99099.91;;;-1.52;74.77
39897;BME280;25567;48.276;14.242;2023-02-28T02:48:59;99105.25;;;-1.54;74.49
39897;BME280;25567;48.276;14.242;2023-02-28T02:51:27;99110.31;;;-1.52;74.33
39897;BME280;25567;48.276;14.242;2023-02-28T02:54:02;99105.09;;;-1.52;74.13
39897;BME280;25567;48.276;14.242;2023-02-28T02:56:33;99100.16;;;-1.55;74.24
39897;BME280;25567;48.276;14.242;2023-02-28T02:59:04;99098.53;;;-1.56;74.08
39897;BME280;25567;48.276;14.242;2023-02-28T03:01:34;99104.97;;;-1.60;74.20
39897;BME280;25567;48.276;14.242;2023-02-28T03:04:09;99102.06;;;-1.57;74.33
39897;BME280;25567;48.276;14.242;2023-02-28T03:06:37;99103.16;;;-1.60;74.33
39897;BME280;25567;48.276;14.242;2023-02-28T03:09:04;99101.09;;;-1.66;74.40
39897;BME280;25567;48.276;14.242;2023-02-28T03:11:31;99103.16;;;-1.70;74.72
39897;BME280;25567;48.276;14.242;2023-02-28T03:16:33;99098.91;;;-1.71;74.58
39897;BME280;25567;48.276;14.242;2023-02-28T03:19:21;99109.16;;;-1.69;74.18
39897;BME280;25567;48.276;14.242;2023-02-28T03:22:12;99107.38;;;-1.69;74.49
39897;BME280;25567;48.276;14.242;2023-02-28T03:24:57;99107.13;;;-1.65;74.43
39897;BME280;25567;48.276;14.242;2023-02-28T03:27:29;99099.56;;;-1.69;74.06
39897;BME280;25567;48.276;14.242;2023-02-28T03:32:44;99105.06;;;-1.72;74.23
39897;BME280;25567;48.276;14.242;2023-02-28T03:35:21;99104.25;;;-1.72;74.12
39897;BME280;25567;48.276;14.242;2023-02-28T03:37:53;99099.03;;;-1.72;74.09
39897;BME280;25567;48.276;14.242;2023-02-28T03:40:25;99101.50;;;-1.71;74.01
39897;BME280;25567;48.276;14.242;2023-02-28T03:43:00;99095.34;;;-1.70;73.51
39897;BME280;25567;48.276;14.242;2023-02-28T03:45:32;99103.97;;;-1.69;73.39
39897;BME280;25567;48.276;14.242;2023-02-28T03:50:38;99097.94;;;-1.70;73.43
39897;BME280;25567;48.276;14.242;2023-02-28T03:53:18;99105.06;;;-1.72;73.78
39897;BME280;25567;48.276;14.242;2023-02-28T03:55:55;99104.50;;;-1.75;73.86
39897;BME280;25567;48.276;14.242;2023-02-28T04:01:07;99108.19;;;-1.78;73.72
39897;BME280;25567;48.276;14.242;2023-02-28T04:03:37;99104.91;;;-1.80;74.02
39897;BME280;25567;48.276;14.242;2023-02-28T04:06:07;99105.56;;;-1.78;73.50
39897;BME280;25567;48.276;14.242;2023-02-28T04:08:34;99111.88;;;-1.80;73.84
39897;BME280;25567;48.276;14.242;2023-02-28T04:11:06;99096.41;;;-1.82;74.03
39897;BME280;25567;48.276;14.242;2023-02-28T04:13:34;99099.84;;;-1.81;73.67
39897;BME280;25567;48.276;14.242;2023-02-28T04:16:01;99102.59;;;-1.83;73.65
39897;BME280;25567;48.276;14.242;2023-02-28T04:18:28;99099.41;;;-1.87;73.62
39897;BME280;25567;48.276;14.242;2023-02-28T04:20:54;99101.06;;;-1.86;73.89
39897;BME280;25567;48.276;14.242;2023-02-28T04:23:21;99099.00;;;-1.82;73.54
39897;BME280;25567;48.276;14.242;2023-02-28T04:25:47;99103.66;;;-1.86;73.28
39897;BME280;25567;48.276;14.242;2023-02-28T04:28:15;99103.53;;;-1.84;73.25
39897;BME280;25567;48.276;14.242;2023-02-28T04:30:42;99092.56;;;-1.88;73.26
39897;BME280;25567;48.276;14.242;2023-02-28T04:33:08;99103.66;;;-1.86;73.49
39897;BME280;25567;48.276;14.242;2023-02-28T04:35:35;99093.50;;;-1.89;73.55
39897;BME280;25567;48.276;14.242;2023-02-28T04:38:02;99088.44;;;-1.90;73.74
39897;BME280;25567;48.276;14.242;2023-02-28T04:40:28;99092.69;;;-1.89;73.80
39897;BME280;25567;48.276;14.242;2023-02-28T04:42:55;99088.44;;;-1.90;73.53
39897;BME280;25567;48.276;14.242;2023-02-28T04:45:22;99100.94;;;-1.84;73.53
39897;BME280;25567;48.276;14.242;2023-02-28T04:47:49;99093.13;;;-1.84;72.99
39897;BME280;25567;48.276;14.242;2023-02-28T04:50:16;99097.47;;;-1.85;73.33
39897;BME280;25567;48.276;14.242;2023-02-28T04:52:42;99109.13;;;-1.89;72.97
39897;BME280;25567;48.276;14.242;2023-02-28T04:55:09;99104.03;;;-1.90;72.80
39897;BME280;25567;48.276;14.242;2023-02-28T04:57:36;99103.09;;;-1.89;73.27
39897;BME280;25567;48.276;14.242;2023-02-28T05:00:03;99097.91;;;-1.89;73.33
39897;BME280;25567;48.276;14.242;2023-02-28T05:02:34;99098.84;;;-1.90;72.79
39897;BME280;25567;48.276;14.242;2023-02-28T05:05:01;99102.25;;;-1.90;72.97
39897;BME280;25567;48.276;14.242;2023-02-28T05:07:28;99098.84;;;-1.90;72.90
39897;BME280;25567;48.276;14.242;2023-02-28T05:09:55;99101.72;;;-1.93;72.78
39897;BME280;25567;48.276;14.242;2023-02-28T05:12:22;99097.47;;;-1.94;73.04
39897;BME280;25567;48.276;14.242;2023-02-28T05:14:49;99102.53;;;-1.93;72.92
39897;BME280;25567;48.276;14.242;2023-02-28T05:17:15;99107.59;;;-1.91;73.16
39897;BME280;25567;48.276;14.242;2023-02-28T05:19:43;99096.53;;;-1.93;73.37
39897;BME280;25567;48.276;14.242;2023-02-28T05:22:14;99090.47;;;-1.94;72.92
39897;BME280;25567;48.276;14.242;2023-02-28T05:24:42;99100.34;;;-1.97;73.09
39897;BME280;25567;48.276;14.242;2023-02-28T05:27:09;99106.34;;;-1.97;73.10
39897;BME280;25567;48.276;14.242;2023-02-28T05:29:36;99100.22;;;-1.96;73.05
39897;BME280;25567;48.276;14.242;2023-02-28T05:32:10;99098.81;;;-2.00;72.83
39897;BME280;25567;48.276;14.242;2023-02-28T05:34:38;99094.44;;;-1.99;73.32
39897;BME280;25567;48.276;14.242;2023-02-28T05:37:06;99096.22;;;-2.00;72.88
39897;BME280;25567;48.276;14.242;2023-02-28T05:39:35;99101.84;;;-1.95;73.09
39897;BME280;25567;48.276;14.242;2023-02-28T05:42:01;99102.66;;;-1.94;72.95
39897;BME280;25567;48.276;14.242;2023-02-28T05:44:28;99107.72;;;-1.93;73.09
39897;BME280;25567;48.276;14.242;2023-02-28T05:46:55;99106.22;;;-1.95;73.15
39897;BME280;25567;48.276;14.242;2023-02-28T05:49:22;99105.97;;;-1.92;73.01
39897;BME280;25567;48.276;14.242;2023-02-28T05:51:48;99110.19;;;-1.91;72.71
39897;BME280;25567;48.276;14.242;2023-02-28T05:54:15;99107.59;;;-1.91;72.29
39897;BME280;25567;48.276;14.242;2023-02-28T05:56:42;99111.19;;;-1.92;72.69
39897;BME280;25567;48.276;14.242;2023-02-28T05:59:12;99115.97;;;-1.88;72.40
39897;BME280;25567;48.276;14.242;2023-02-28T06:01:41;99116.91;;;-1.89;72.28
39897;BME280;25567;48.276;14.242;2023-02-28T06:04:11;99119.38;;;-1.87;72.49
39897;BME280;25567;48.276;14.242;2023-02-28T06:06:55;99109.81;;;-1.87;72.29
39897;BME280;25567;48.276;14.242;2023-02-28T06:09:23;99112.41;;;-1.87;72.18
39897;BME280;25567;48.276;14.242;2023-02-28T06:11:51;99113.50;;;-1.89;72.23
39897;BME280;25567;48.276;14.242;2023-02-28T06:14:19;99121.31;;;-1.89;72.20
39897;BME280;25567;48.276;14.242;2023-02-28T06:16:46;99110.06;;;-1.90;72.28
39897;BME280;25567;48.276;14.242;2023-02-28T06:19:14;99124.72;;;-1.89;72.63
39897;BME280;25567;48.276;14.242;2023-02-28T06:21:42;99122.25;;;-1.90;71.73
39897;BME280;25567;48.276;14.242;2023-02-28T06:24:09;99120.06;;;-1.85;72.36
39897;BME280;25567;48.276;14.242;2023-02-28T06:26:36;99120.06;;;-1.85;72.09
39897;BME280;25567;48.276;14.242;2023-02-28T06:29:05;99131.84;;;-1.81;72.50
39897;BME280;25567;48.276;14.242;2023-02-28T06:31:32;99132.94;;;-1.83;72.73
39897;BME280;25567;48.276;14.242;2023-02-28T06:34:00;99133.78;;;-1.83;72.13
39897;BME280;25567;48.276;14.242;2023-02-28T06:36:27;99131.03;;;-1.81;72.37
39897;BME280;25567;48.276;14.242;2023-02-28T06:38:54;99143.63;;;-1.77;72.41
39897;BME280;25567;48.276;14.242;2023-02-28T06:41:24;99137.50;;;-1.76;72.55
39897;BME280;25567;48.276;14.242;2023-02-28T06:43:51;99131.78;;;-1.70;72.50
39897;BME280;25567;48.276;14.242;2023-02-28T06:46:19;99147.38;;;-1.70;72.03
39897;BME280;25567;48.276;14.242;2023-02-28T06:48:45;99147.09;;;-1.66;72.76
39897;BME280;25567;48.276;14.242;2023-02-28T06:51:17;99142.84;;;-1.68;72.15
39897;BME280;25567;48.276;14.242;2023-02-28T06:53:44;99143.97;;;-1.60;71.50
39897;BME280;25567;48.276;14.242;2023-02-28T06:56:16;99146.56;;;-1.60;72.19
39897;BME280;25567;48.276;14.242;2023-02-28T06:58:46;99148.09;;;-1.58;71.80
39897;BME280;25567;48.276;14.242;2023-02-28T07:01:14;99140.16;;;-1.56;71.98
39897;BME280;25567;48.276;14.242;2023-02-28T07:03:41;99139.34;;;-1.47;72.01
39897;BME280;25567;48.276;14.242;2023-02-28T07:06:07;99149.47;;;-1.44;71.83
39897;BME280;25567;48.276;14.242;2023-02-28T07:08:35;99144.00;;;-1.41;71.64
39897;BME280;25567;48.276;14.242;2023-02-28T07:11:03;99145.13;;;-1.33;71.50
39897;BME280;25567;48.276;14.242;2023-02-28T07:13:30;99144.84;;;-1.30;70.83
39897;BME280;25567;48.276;14.242;2023-02-28T07:16:00;99132.53;;;-1.28;71.48
39897;BME280;25567;48.276;14.242;2023-02-28T07:18:27;99147.88;;;-1.25;70.91
39897;BME280;25567;48.276;14.242;2023-02-28T07:20:54;99144.03;;;-1.21;70.77
39897;BME280;25567;48.276;14.242;2023-02-28T07:23:21;99145.16;;;-1.14;70.76
39897;BME280;25567;48.276;14.242;2023-02-28T07:25:50;99137.19;;;-1.03;70.39
39897;BME280;25567;48.276;14.242;2023-02-28T07:28:16;99145.41;;;-0.97;70.27
39897;BME280;25567;48.276;14.242;2023-02-28T07:30:43;99143.22;;;-0.92;70.51
39897;BME280;25567;48.276;14.242;2023-02-28T07:33:10;99141.44;;;-0.92;69.95
39897;BME280;25567;48.276;14.242;2023-02-28T07:35:37;99136.47;;;-0.85;70.66
39897;BME280;25567;48.276;14.242;2023-02-28T07:38:04;99140.75;;;-0.84;69.98
39897;BME280;25567;48.276;14.242;2023-02-28T07:40:31;99142.38;;;-0.83;69.67
39897;BME280;25567;48.276;14.242;2023-02-28T07:42:59;99144.72;;;-0.80;70.23
39897;BME280;25567;48.276;14.242;2023-02-28T07:45:27;99140.19;;;-0.78;69.52
39897;BME280;25567;48.276;14.242;2023-02-28T07:47:55;99149.94;;;-0.70;69.41
39897;BME280;25567;48.276;14.242;2023-02-28T07:50:22;99141.41;;;-0.53;68.37
39897;BME280;25567;48.276;14.242;2023-02-28T07:52:52;99146.19;;;-0.48;68.72
39897;BME280;25567;48.276;14.242;2023-02-28T07:55:19;99141.94;;;-0.49;68.32
39897;BME280;25567;48.276;14.242;2023-02-28T07:57:45;99147.41;;;-0.42;68.53
39897;BME280;25567;48.276;14.242;2023-02-28T08:00:12;99151.91;;;-0.35;68.41
39897;BME280;25567;48.276;14.242;2023-02-28T08:02:40;99148.34;;;-0.24;67.98
39897;BME280;25567;48.276;14.242;2023-02-28T08:05:08;99155.88;;;-0.21;68.25
39897;BME280;25567;48.276;14.242;2023-02-28T08:07:34;99154.06;;;-0.20;68.28
39897;BME280;25567;48.276;14.242;2023-02-28T08:10:01;99154.06;;;-0.10;67.25
39897;BME280;25567;48.276;14.242;2023-02-28T08:12:28;99152.66;;;-0.05;67.46
39897;BME280;25567;48.276;14.242;2023-02-28T08:14:54;99155.66;;;0.01;67.60
39897;BME280;25567;48.276;14.242;2023-02-28T08:17:21;99150.44;;;0.01;67.61
39897;BME280;25567;48.276;14.242;2023-02-28T08:19:48;99147.38;;;0.15;66.81
39897;BME280;25567;48.276;14.242;2023-02-28T08:22:15;99147.47;;;0.23;66.43
39897;BME280;25567;48.276;14.242;2023-02-28T08:24:42;99142.47;;;0.30;65.88
39897;BME280;25567;48.276;14.242;2023-02-28T08:27:09;99148.38;;;0.32;66.73
39897;BME280;25567;48.276;14.242;2023-02-28T08:29:37;99153.53;;;0.42;66.80
39897;BME280;25567;48.276;14.242;2023-02-28T08:32:06;99149.38;;;0.49;66.00
39897;BME280;25567;48.276;14.242;2023-02-28T08:34:45;99155.38;;;0.59;66.17
39897;BME280;25567;48.276;14.242;2023-02-28T08:37:13;99151.94;;;0.77;65.81
39897;BME280;25567;48.276;14.242;2023-02-28T08:39:40;99153.38;;;0.89;65.31
39897;BME280;25567;48.276;14.242;2023-02-28T08:42:06;99158.69;;;0.97;65.51
39897;BME280;25567;48.276;14.242;2023-02-28T08:44:33;99153.75;;;1.12;65.15
39897;BME280;25567;48.276;14.242;2023-02-28T08:47:00;99163.22;;;1.13;64.69
39897;BME280;25567;48.276;14.242;2023-02-28T08:49:27;99153.97;;;1.19;63.76
39897;BME280;25567;48.276;14.242;2023-02-28T08:51:54;99165.25;;;1.20;64.77
39897;BME280;25567;48.276;14.242;2023-02-28T08:54:21;99168.59;;;1.30;65.04
39897;BME280;25567;48.276;14.242;2023-02-28T08:56:51;99169.72;;;1.27;64.58
39897;BME280;25567;48.276;14.242;2023-02-28T08:59:18;99170.06;;;1.32;64.74
39897;BME280;25567;48.276;14.242;2023-02-28T09:01:45;99171.56;;;1.35;64.97
39897;BME280;25567;48.276;14.242;2023-02-28T09:04:12;99174.31;;;1.52;63.92
39897;BME280;25567;48.276;14.242;2023-02-28T09:06:42;99177.75;;;1.52;64.31
39897;BME280;25567;48.276;14.242;2023-02-28T09:09:10;99180.94;;;1.64;63.55
39897;BME280;25567;48.276;14.242;2023-02-28T09:11:39;99175.59;;;1.74;63.84
39897;BME280;25567;48.276;14.242;2023-02-28T09:14:06;99176.84;;;1.88;63.80
39897;BME280;25567;48.276;14.242;2023-02-28T09:16:33;99178.41;;;2.07;62.64
39897;BME280;25567;48.276;14.242;2023-02-28T09:19:01;99176.16;;;2.12;63.10
39897;BME280;25567;48.276;14.242;2023-02-28T09:21:28;99177.59;;;2.06;62.90
39897;BME280;25567;48.276;14.242;2023-02-28T09:23:55;99179.41;;;2.06;63.14
39897;BME280;25567;48.276;14.242;2023-02-28T09:26:25;99174.31;;;2.04;63.41
39897;BME280;25567;48.276;14.242;2023-02-28T09:29:04;99178.28;;;2.08;63.18
39897;BME280;25567;48.276;14.242;2023-02-28T09:31:31;99185.06;;;2.27;62.45
39897;BME280;25567;48.276;14.242;2023-02-28T09:33:58;99188.88;;;2.41;62.79
39897;BME280;25567;48.276;14.242;2023-02-28T09:36:26;99181.47;;;2.71;62.52
39897;BME280;25567;48.276;14.242;2023-02-28T09:39:10;99180.06;;;3.02;62.61
39897;BME280;25567;48.276;14.242;2023-02-28T09:41:40;99185.28;;;3.10;61.38
39897;BME280;25567;48.276;14.242;2023-02-28T09:44:36;99187.44;;;3.23;60.97
39897;BME280;25567;48.276;14.242;2023-02-28T09:47:22;99185.31;;;3.34;59.83
39897;BME280;25567;48.276;14.242;2023-02-28T09:49:52;99188.94;;;3.25;60.58
39897;BME280;25567;48.276;14.242;2023-02-28T09:52:23;99187.59;;;3.13;61.03
39897;BME280;25567;48.276;14.242;2023-02-28T09:54:52;99194.47;;;3.06;60.21
39897;BME280;25567;48.276;14.242;2023-02-28T09:57:34;99192.19;;;3.11;60.45
39897;BME280;25567;48.276;14.242;2023-02-28T10:00:10;99184.66;;;3.41;61.06
39897;BME280;25567;48.276;14.242;2023-02-28T10:03:27;99189.75;;;3.59;60.73
39897;BME280;25567;48.276;14.242;2023-02-28T10:05:50;99191.53;;;3.75;59.72
39897;BME280;25567;48.276;14.242;2023-02-28T10:10:55;99190.34;;;3.94;58.95
39897;BME280;25567;48.276;14.242;2023-02-28T10:13:31;99179.06;;;4.33;58.55
39897;BME280;25567;48.276;14.242;2023-02-28T10:16:14;99193.41;;;4.22;58.62
39897;BME280;25567;48.276;14.242;2023-02-28T10:18:46;99195.53;;;4.18;58.62
39897;BME280;25567;48.276;14.242;2023-02-28T10:21:18;99200.63;;;4.20;58.59
39897;BME280;25567;48.276;14.242;2023-02-28T10:23:47;99206.31;;;4.32;58.12
39897;BME280;25567;48.276;14.242;2023-02-28T10:26:17;99196.50;;;4.65;57.90
39897;BME280;25567;48.276;14.242;2023-02-28T10:28:44;99189.44;;;4.97;57.61
39897;BME280;25567;48.276;14.242;2023-02-28T10:31:18;99198.78;;;5.23;57.56
39897;BME280;25567;48.276;14.242;2023-02-28T10:33:45;99200.00;;;5.35;55.44
39897;BME280;25567;48.276;14.242;2023-02-28T10:36:18;99187.16;;;5.41;54.40
39897;BME280;25567;48.276;14.242;2023-02-28T10:38:46;99188.38;;;5.53;56.23
39897;BME280;25567;48.276;14.242;2023-02-28T10:41:16;99186.81;;;5.44;55.92
39897;BME280;25567;48.276;14.242;2023-02-28T10:43:44;99193.19;;;5.64;56.60
39897;BME280;25567;48.276;14.242;2023-02-28T10:46:15;99183.78;;;5.32;56.29
39897;BME280;25567;48.276;14.242;2023-02-28T10:49:17;99187.50;;;5.38;55.99
39897;BME280;25567;48.276;14.242;2023-02-28T10:51:46;99179.38;;;5.47;56.12
39897;BME280;25567;48.276;14.242;2023-02-28T10:54:19;99171.28;;;5.49;56.30
39897;BME280;25567;48.276;14.242;2023-02-28T10:57:05;99185.88;;;5.75;55.20
39897;BME280;25567;48.276;14.242;2023-02-28T10:59:33;99179.44;;;5.92;53.81
39897;BME280;25567;48.276;14.242;2023-02-28T11:01:59;99167.50;;;6.05;53.49
39897;BME280;25567;48.276;14.242;2023-02-28T11:06:58;99166.22;;;6.00;54.17
39897;BME280;25567;48.276;14.242;2023-02-28T11:09:38;99167.41;;;5.98;54.44
39897;BME280;25567;48.276;14.242;2023-02-28T11:12:17;99159.63;;;5.66;54.22
39897;BME280;25567;48.276;14.242;2023-02-28T11:14:49;99163.69;;;5.54;54.62
39897;BME280;25567;48.276;14.242;2023-02-28T11:17:25;99155.66;;;5.71;53.39
39897;BME280;25567;48.276;14.242;2023-02-28T11:19:57;99152.22;;;5.85;53.99
39897;BME280;25567;48.276;14.242;2023-02-28T11:22:27;99155.56;;;5.94;54.17
39897;BME280;25567;48.276;14.242;2023-02-28T11:24:58;99150.31;;;6.39;55.45
39897;BME280;25567;48.276;14.242;2023-02-28T11:27:45;99145.69;;;6.41;55.06
39897;BME280;25567;48.276;14.242;2023-02-28T11:30:33;99151.00;;;6.62;52.95
39897;BME280;25567;48.276;14.242;2023-02-28T11:33:10;99148.69;;;6.74;52.40
39897;BME280;25567;48.276;14.242;2023-02-28T11:35:45;99146.59;;;6.70;51.48
39897;BME280;25567;48.276;14.242;2023-02-28T11:38:17;99145.47;;;6.79;52.25
39897;BME280;25567;48.276;14.242;2023-02-28T11:44:13;99144.88;;;6.77;53.08
39897;BME280;25567;48.276;14.242;2023-02-28T11:52:21;99142.41;;;6.39;52.48
39897;BME280;25567;48.276;14.242;2023-02-28T11:55:14;99145.84;;;6.54;52.66
39897;BME280;25567;48.276;14.242;2023-02-28T12:00:45;99132.53;;;6.62;52.41
39897;BME280;25567;48.276;14.242;2023-02-28T12:05:56;99136.06;;;6.70;51.09
39897;BME280;25567;48.276;14.242;2023-02-28T12:13:51;99142.44;;;6.60;52.19
39897;BME280;25567;48.276;14.242;2023-02-28T12:24:39;99140.44;;;6.62;53.76
39897;BME280;25567;48.276;14.242;2023-02-28T12:27:13;99127.75;;;6.51;53.17
39897;BME280;25567;48.276;14.242;2023-02-28T12:29:50;99130.38;;;6.51;52.94
39897;BME280;25567;48.276;14.242;2023-02-28T12:32:23;99133.19;;;6.49;53.16
39897;BME280;25567;48.276;14.242;2023-02-28T12:37:41;99130.09;;;6.61;54.63
39897;BME280;25567;48.276;14.242;2023-02-28T12:40:17;99128.53;;;6.66;54.80
39897;BME280;25567;48.276;14.242;2023-02-28T12:42:50;99125.25;;;6.64;52.88
39897;BME280;25567;48.276;14.242;2023-02-28T12:47:50;99112.31;;;6.70;53.60
39897;BME280;25567;48.276;14.242;2023-02-28T12:50:19;99119.63;;;6.67;53.11
39897;BME280;25567;48.276;14.242;2023-02-28T12:52:52;99119.97;;;6.64;52.75
39897;BME280;25567;48.276;14.242;2023-02-28T12:55:29;99123.00;;;6.61;54.44
39897;BME280;25567;48.276;14.242;2023-02-28T12:58:05;99121.25;;;6.68;54.16
39897;BME280;25567;48.276;14.242;2023-02-28T13:00:37;99108.25;;;6.67;52.45
39897;BME280;25567;48.276;14.242;2023-02-28T13:03:27;99114.03;;;6.56;53.15
39897;BME280;25567;48.276;14.242;2023-02-28T13:06:21;99112.50;;;6.46;54.39
39897;BME280;25567;48.276;14.242;2023-02-28T13:14:00;99105.19;;;6.63;55.55
39897;BME280;25567;48.276;14.242;2023-02-28T13:16:42;99104.81;;;6.66;54.21
39897;BME280;25567;48.276;14.242;2023-02-28T13:19:17;99104.50;;;6.76;53.90
39897;BME280;25567;48.276;14.242;2023-02-28T13:21:45;99101.03;;;6.76;54.19
39897;BME280;25567;48.276;14.242;2023-02-28T13:29:42;99102.56;;;6.63;53.87
39897;BME280;25567;48.276;14.242;2023-02-28T13:37:34;99099.34;;;6.68;54.80
39897;BME280;25567;48.276;14.242;2023-02-28T13:43:08;99104.94;;;6.58;54.34
39897;BME280;25567;48.276;14.242;2023-02-28T13:45:35;99104.94;;;6.58;54.91
39897;BME280;25567;48.276;14.242;2023-02-28T13:48:20;99098.28;;;6.62;54.51
39897;BME280;25567;48.276;14.242;2023-02-28T13:50:50;99102.69;;;6.77;54.23
39897;BME280;25567;48.276;14.242;2023-02-28T13:53:41;99099.22;;;6.76;54.11
39897;BME280;25567;48.276;14.242;2023-02-28T13:56:28;99101.31;;;6.81;55.57
39897;BME280;25567;48.276;14.242;2023-02-28T14:02:03;99103.63;;;6.91;55.15
39897;BME280;25567;48.276;14.242;2023-02-28T14:04:58;99104.25;;;6.93;53.06
39897;BME280;25567;48.276;14.242;2023-02-28T14:07:33;99108.88;;;6.91;52.87
39897;BME280;25567;48.276;14.242;2023-02-28T14:10:06;99103.19;;;6.87;54.35
39897;BME280;25567;48.276;14.242;2023-02-28T14:12:52;99101.28;;;7.03;53.77
39897;BME280;25567;48.276;14.242;2023-02-28T14:18:03;99101.69;;;6.99;54.19
39897;BME280;25567;48.276;14.242;2023-02-28T14:20:33;99099.16;;;7.13;53.75
39897;BME280;25567;48.276;14.242;2023-02-28T14:23:13;99102.25;;;7.16;54.09
39897;BME280;25567;48.276;14.242;2023-02-28T14:29:18;99091.69;;;7.16;54.72
39897;BME280;25567;48.276;14.242;2023-02-28T14:31:29;99098.66;;;7.24;53.92
39897;BME280;25567;48.276;14.242;2023-02-28T14:36:58;99097.09;;;7.08;54.89
39897;BME280;25567;48.276;14.242;2023-02-28T14:39:27;99096.72;;;7.11;53.98
39897;BME280;25567;48.276;14.242;2023-02-28T14:41:57;99098.06;;;7.29;54.19
39897;BME280;25567;48.276;14.242;2023-02-28T14:44:31;99100.91;;;7.27;53.99
39897;BME280;25567;48.276;14.242;2023-02-28T14:47:00;99104.94;;;7.23;53.70
39897;BME280;25567;48.276;14.242;2023-02-28T14:49:37;99112.53;;;7.11;54.30
39897;BME280;25567;48.276;14.242;2023-02-28T14:52:17;99104.19;;;7.08;54.57
39897;BME280;25567;48.276;14.242;2023-02-28T14:54:46;99117.94;;;7.03;54.18